Hauptseite
METAR-TAF:

METAR-TAF

Flughäfen :

Gibraltar, Gibraltar

Flughafen Gibraltar

Breite: 36-09N, Länge: 005-21W, Höhe: 5 m

Beobachtung

Neuester Wetterbericht von vor 1 Stunde und 3 Minuten, um 22:50 UTC
Wind 13 kt aus Ost
Temperatur 14°C
Luftfeuchtigkeit 94%
Luftdruck 1021 hPa
Sichtweite 10 km oder mehr

METAR: LXGB 172250Z AUTO 08013KT 9999 // NCD 14/13 Q1021

Zeit: 00:53 (23:53 UTC)

Prognose

Neuester Wetterbericht von vor 10 Stunden und 9 Minuten, um 13:44 UTC
Gültige Prognose vom 17 um 15 UTC bis 17 um 22 UTC
Wind 8 kt aus Ost
Sichtweite 10 km oder mehr
Leicht bewölkt in der Höhe von 2000 ft
Übergehend zu
vom 17 um 20 UTC bis 17 um 22 UTC
Wind 15 kt aus Ost, Böen bis zu 25 kt

TAF: LXGB 171344Z 1715/1722 08008KT 9999 FEW020 BECMG 1720/1722 08015G25KT

Wetterbeobachtungen und Prognosen von mehr als 4000 Flughäfen (METAR und TAF Bericht).

Die verfügbaren Stationen werden durch gelbe und rote Markierungen auf der Karte dargestellt.

Führen Sie die Maus auf sie, um den Namen der Station zu sehen.

Darauf klicken, um die Beobachtung von Wetterbeobachtungen und Prognosen zu sehen.

Um die Karte zu ändern : klicken Sie auf den grünen Tasten mit einem schwarzen Kreuz Zum Vergrößern, auf den grünen Button mit einem Gedankenstrich zu verkleinern, oder auf die grünen Pfeile für benachbarte Karten.


METAR-TAF: